Time;durP1;ratioP1;P1;durP2;ratioP2;P2;SDS_P1;SDS_P2;PMS_P1;PMS_P2;Temp;Humidity;BMP_temperature;BMP_pressure;BME280_temperature;BME280_humidity;BME280_pressure;Samples;Min_cycle;Max_cycle;Signal;HPM_P1;HPM_P2
2021/08/26 00:07:32;;;;;;;;;24.25;24.00;;;;;17.99;68.16;101542.19;5041409;28;45315;-62
2021/08/26 00:09:58;;;;;;;;;25.25;23.75;;;;;18.02;68.46;101555.19;5044232;28;45635;-63
2021/08/26 00:12:23;;;;;;;;;31.50;27.50;;;;;18.01;68.58;101564.00;5045044;28;45217;-62
2021/08/26 00:14:48;;;;;;;;;25.00;21.25;;;;;17.96;68.46;101547.59;5041111;28;45372;-63
2021/08/26 00:17:14;;;;;;;;;28.50;24.50;;;;;17.94;69.27;101560.81;5041454;28;45345;-63
2021/08/26 00:19:41;;;;;;;;;27.50;24.75;;;;;17.94;68.34;101563.44;5040125;28;45517;-64
2021/08/26 00:22:07;;;;;;;;;22.00;21.50;;;;;17.92;69.89;101557.41;5040941;28;46190;-67
2021/08/26 00:24:32;;;;;;;;;27.00;21.00;;;;;17.88;73.25;101555.84;5040974;28;45299;-66
2021/08/26 00:26:57;;;;;;;;;29.25;24.00;;;;;17.83;69.18;101560.47;5041025;28;45343;-66
2021/08/26 00:29:23;;;;;;;;;24.00;18.25;;;;;17.78;72.20;101562.41;5050031;28;45308;-66
2021/08/26 00:31:48;;;;;;;;;24.00;21.00;;;;;17.70;70.22;101554.03;5040896;28;45358;-64
2021/08/26 00:34:13;;;;;;;;;28.25;22.50;;;;;17.65;71.57;101556.84;5040076;28;45431;-65
2021/08/26 00:36:39;;;;;;;;;22.00;19.75;;;;;17.62;70.52;101551.72;5022786;28;45311;-64
2021/08/26 00:39:04;;;;;;;;;26.50;21.00;;;;;17.52;74.48;101548.63;5040799;28;45171;-65
2021/08/26 00:41:30;;;;;;;;;24.25;20.00;;;;;17.49;72.66;101548.75;5040751;28;45435;-65
2021/08/26 00:43:56;;;;;;;;;25.00;21.50;;;;;17.45;73.62;101552.44;5040744;28;45271;-65
2021/08/26 00:46:22;;;;;;;;;17.50;16.00;;;;;17.39;75.49;101554.47;5040576;28;45574;-64
2021/08/26 00:48:48;;;;;;;;;19.75;19.00;;;;;17.37;73.74;101553.69;5040190;28;45619;-66
2021/08/26 00:51:15;;;;;;;;;18.75;12.00;;;;;17.32;73.42;101554.72;5040374;28;45990;-66
2021/08/26 00:53:41;;;;;;;;;11.25;10.00;;;;;17.34;73.11;101559.91;5040321;28;45672;-65
2021/08/26 00:56:13;;;;;;;;;18.00;16.50;;;;;17.34;72.99;101554.66;5040167;28;45253;-66
2021/08/26 00:58:39;;;;;;;;;19.50;17.00;;;;;17.29;76.07;101549.59;5040111;28;45493;-66
2021/08/26 01:01:09;;;;;;;;;19.75;16.00;;;;;17.24;76.56;101543.72;5040365;28;45508;-66
2021/08/26 01:03:42;;;;;;;;;13.25;9.25;;;;;17.23;74.03;101546.41;5039633;28;45643;-65
2021/08/26 01:06:14;;;;;;;;;14.00;12.75;;;;;17.20;72.73;101542.09;5022752;28;45391;-64
2021/08/26 01:09:07;;;;;;;;;13.75;12.25;;;;;17.18;74.36;101537.84;5040179;28;45369;-64
2021/08/26 01:11:35;;;;;;;;;15.75;13.00;;;;;17.14;74.62;101541.50;5039884;28;45318;-65
2021/08/26 01:14:03;;;;;;;;;14.00;12.75;;;;;17.08;77.42;101537.38;5040222;28;45479;-64
2021/08/26 01:16:28;;;;;;;;;17.50;12.00;;;;;17.07;75.15;101530.44;5040345;28;45291;-64
2021/08/26 01:18:54;;;;;;;;;12.25;11.75;;;;;17.06;75.66;101538.38;5039143;28;45566;-64
2021/08/26 01:21:22;;;;;;;;;14.50;13.25;;;;;17.02;76.98;101537.66;5040157;28;45224;-64
2021/08/26 01:23:51;;;;;;;;;14.50;13.25;;;;;17.00;75.21;101531.56;5040177;28;45227;-64
2021/08/26 01:26:23;;;;;;;;;13.25;11.00;;;;;17.00;74.86;101532.44;5040315;28;45403;-65
2021/08/26 01:28:53;;;;;;;;;16.00;12.00;;;;;17.03;74.95;101536.72;5022084;28;45713;-64
2021/08/26 01:31:19;;;;;;;;;14.75;13.00;;;;;17.03;78.46;101528.84;5039994;28;45530;-64
2021/08/26 01:33:53;;;;;;;;;12.50;12.00;;;;;17.03;76.19;101526.22;5039045;28;45741;-64
2021/08/26 01:36:19;;;;;;;;;11.00;11.00;;;;;17.02;77.68;101525.38;5040119;28;45324;-64
2021/08/26 01:38:46;;;;;;;;;8.50;8.50;;;;;17.00;79.02;101527.19;5039625;28;45380;-64
2021/08/26 01:41:14;;;;;;;;;15.75;14.25;;;;;16.98;77.23;101530.78;5039984;28;45408;-64
2021/08/26 01:43:39;;;;;;;;;13.25;13.00;;;;;16.96;76.28;101519.50;5039683;28;45666;-63
2021/08/26 01:46:05;;;;;;;;;13.00;12.00;;;;;16.97;76.83;101536.97;5039997;28;45272;-63
2021/08/26 01:48:30;;;;;;;;;14.75;13.50;;;;;16.93;77.18;101527.50;5038893;28;45494;-63
2021/08/26 01:50:55;;;;;;;;;11.75;10.00;;;;;16.92;77.03;101536.31;5039468;28;46035;-63
2021/08/26 01:53:21;;;;;;;;;18.00;16.00;;;;;16.89;79.20;101531.19;5039636;28;45336;-64
2021/08/26 01:55:47;;;;;;;;;16.75;13.75;;;;;16.88;76.89;101532.09;5032387;28;45321;-65
2021/08/26 01:58:14;;;;;;;;;20.25;14.00;;;;;16.89;77.43;101529.41;5039253;28;45407;-64
2021/08/26 02:00:39;;;;;;;;;19.00;15.75;;;;;16.92;77.20;101525.81;5045802;28;46200;-64
2021/08/26 02:03:05;;;;;;;;;16.75;15.25;;;;;16.93;77.74;101524.88;5042202;28;45170;-64
2021/08/26 02:05:30;;;;;;;;;18.25;14.75;;;;;16.93;76.82;101522.25;5017720;28;45434;-63
2021/08/26 02:07:56;;;;;;;;;18.25;17.00;;;;;16.91;76.61;101519.69;5036795;28;45236;-64
2021/08/26 02:10:22;;;;;;;;;16.75;14.75;;;;;16.88;77.89;101514.56;5015617;28;47851;-64
2021/08/26 02:12:47;;;;;;;;;21.00;16.25;;;;;16.87;76.16;101527.78;5038215;28;45416;-64
2021/08/26 02:15:16;;;;;;;;;19.00;16.00;;;;;16.84;77.01;101522.66;5039631;28;45399;-64
2021/08/26 02:17:41;;;;;;;;;17.50;15.25;;;;;16.80;76.98;101519.28;5047740;28;45376;-64
2021/08/26 02:20:07;;;;;;;;;18.25;17.00;;;;;16.80;77.32;101526.28;5037230;28;45495;-64
2021/08/26 02:22:34;;;;;;;;;17.00;14.00;;;;;16.74;78.89;101519.53;5035455;28;45756;-65
2021/08/26 02:24:59;;;;;;;;;20.00;15.25;;;;;16.66;79.69;101519.84;5031490;28;45238;-65
2021/08/26 02:27:24;;;;;;;;;17.75;15.75;;;;;16.57;78.38;101520.16;5032724;28;45380;-65
2021/08/26 02:29:50;;;;;;;;;17.00;11.50;;;;;16.54;79.58;101517.66;5037756;28;47098;-64
2021/08/26 02:32:15;;;;;;;;;16.25;13.25;;;;;16.53;78.50;101508.09;5039271;28;45277;-64
2021/08/26 02:34:40;;;;;;;;;13.50;11.00;;;;;16.51;79.02;101511.69;5039327;28;45161;-64
2021/08/26 02:37:07;;;;;;;;;11.00;11.00;;;;;16.49;77.69;101511.75;5032919;28;45166;-64
2021/08/26 02:39:36;;;;;;;;;12.50;12.25;;;;;16.46;78.91;101519.75;5047461;28;47277;-64
2021/08/26 02:42:03;;;;;;;;;11.00;9.50;;;;;16.45;78.58;101520.69;5038877;28;45759;-64
2021/08/26 02:44:28;;;;;;;;;11.75;9.50;;;;;16.47;80.19;101521.47;5047223;28;45328;-65
2021/08/26 02:46:53;;;;;;;;;12.00;9.75;;;;;16.39;78.51;101519.13;5040135;28;45353;-65
2021/08/26 02:49:19;;;;;;;;;6.75;6.75;;;;;16.38;79.21;101517.41;5039522;28;46140;-65
2021/08/26 02:51:44;;;;;;;;;10.50;8.00;;;;;16.39;78.88;101513.03;5039411;28;45450;-65
2021/08/26 02:54:10;;;;;;;;;8.00;6.00;;;;;16.37;78.48;101504.34;5039207;28;45231;-64
2021/08/26 02:56:35;;;;;;;;;7.75;7.25;;;;;16.37;77.70;101502.59;5038951;28;45222;-64
2021/08/26 02:59:00;;;;;;;;;8.75;8.50;;;;;16.33;78.98;101516.75;5038628;28;45247;-64
2021/08/26 03:01:26;;;;;;;;;10.50;6.00;;;;;16.29;80.47;101506.44;5035691;28;45411;-64
2021/08/26 03:03:51;;;;;;;;;6.25;5.25;;;;;16.22;79.87;101508.47;5032857;28;45305;-63
2021/08/26 03:06:16;;;;;;;;;6.50;6.00;;;;;16.20;79.88;101506.78;5036337;28;45294;-63
2021/08/26 03:08:42;;;;;;;;;7.75;5.25;;;;;16.17;80.86;101499.03;5047611;28;46435;-63
2021/08/26 03:11:09;;;;;;;;;11.50;5.25;;;;;16.18;80.43;101506.00;5038622;28;45213;-64
2021/08/26 03:13:35;;;;;;;;;6.25;5.00;;;;;16.19;79.92;101497.19;5038872;28;45389;-64
2021/08/26 03:16:00;;;;;;;;;4.25;4.25;;;;;16.19;79.24;101503.31;5038806;28;45346;-64
2021/08/26 03:18:25;;;;;;;;;5.75;5.00;;;;;16.18;80.24;101492.88;5041380;28;45333;-64
2021/08/26 03:20:51;;;;;;;;;8.00;5.00;;;;;16.17;80.58;101494.66;5042118;28;45501;-64
2021/08/26 03:23:16;;;;;;;;;8.00;6.25;;;;;16.17;80.45;101496.41;5042026;28;45354;-64
2021/08/26 03:25:42;;;;;;;;;6.25;6.00;;;;;16.15;81.32;101488.59;5041986;28;45309;-64
2021/08/26 03:28:08;;;;;;;;;6.75;4.00;;;;;16.17;80.14;101491.16;5047860;28;46330;-64
2021/08/26 03:30:33;;;;;;;;;6.75;5.25;;;;;16.16;80.78;101486.84;5044429;28;45279;-65
2021/08/26 03:32:58;;;;;;;;;7.00;7.00;;;;;16.15;80.14;101496.47;5042028;28;45340;-64
2021/08/26 03:35:24;;;;;;;;;9.75;6.00;;;;;16.16;79.98;101494.72;5041619;28;45278;-64
2021/08/26 03:37:49;;;;;;;;;4.75;4.75;;;;;16.18;79.65;101491.09;5041536;28;45733;-64
2021/08/26 03:40:14;;;;;;;;;4.75;4.75;;;;;16.17;80.24;101492.03;5050097;28;45290;-64
2021/08/26 03:42:40;;;;;;;;;4.00;4.00;;;;;16.16;80.35;101495.56;5041639;28;45378;-64
2021/08/26 03:45:07;;;;;;;;;4.75;4.75;;;;;16.13;81.74;101490.44;5041677;28;45298;-64
2021/08/26 03:47:32;;;;;;;;;6.75;5.00;;;;;16.15;80.06;101490.38;5041581;28;46232;-64
2021/08/26 03:49:58;;;;;;;;;7.00;5.50;;;;;16.14;79.76;101494.78;5043579;28;45407;-64
2021/08/26 03:52:23;;;;;;;;;6.00;5.00;;;;;16.15;79.14;101495.63;5041364;28;45416;-64
2021/08/26 03:54:48;;;;;;;;;4.50;4.00;;;;;16.12;79.18;101489.59;5041746;28;45217;-65
2021/08/26 03:57:13;;;;;;;;;5.75;4.50;;;;;16.12;79.42;101493.97;5041067;28;45526;-64
2021/08/26 03:59:39;;;;;;;;;2.50;2.50;;;;;16.17;79.18;101504.28;5041473;28;45495;-64
2021/08/26 04:02:04;;;;;;;;;5.50;5.00;;;;;16.18;79.29;101498.13;5041557;28;45299;-65
2021/08/26 04:04:30;;;;;;;;;6.00;5.25;;;;;16.19;79.20;101503.31;5041301;28;45368;-64
2021/08/26 04:06:55;;;;;;;;;5.50;5.50;;;;;16.21;79.46;101498.00;5040975;28;46280;-65
2021/08/26 04:09:20;;;;;;;;;6.00;4.75;;;;;16.26;79.04;101506.56;5041337;28;45265;-65
2021/08/26 04:11:46;;;;;;;;;5.50;5.50;;;;;16.31;79.37;101502.84;5041214;28;45466;-64
2021/08/26 04:14:11;;;;;;;;;7.50;4.00;;;;;16.34;78.76;101501.88;5041310;28;45518;-64
2021/08/26 04:16:38;;;;;;;;;5.00;4.00;;;;;16.33;78.89;101502.78;5031805;28;47301;-64
2021/08/26 04:19:03;;;;;;;;;7.00;7.00;;;;;16.33;79.19;101514.13;5023090;28;45793;-64
2021/08/26 04:21:29;;;;;;;;;5.25;4.00;;;;;16.34;79.37;101512.34;5041170;28;45518;-64
2021/08/26 04:23:54;;;;;;;;;6.00;4.00;;;;;16.31;79.49;101508.09;5041307;28;45422;-64
2021/08/26 04:26:19;;;;;;;;;6.00;4.75;;;;;16.27;79.04;101505.66;5049866;28;45227;-65
2021/08/26 04:28:45;;;;;;;;;6.75;5.75;;;;;16.34;78.86;101504.47;5040606;28;45288;-65
2021/08/26 04:31:10;;;;;;;;;4.25;4.25;;;;;16.34;78.58;101494.00;5041083;28;45372;-65
2021/08/26 04:33:36;;;;;;;;;7.00;5.50;;;;;16.30;79.51;101495.03;5040625;28;45617;-64
2021/08/26 04:36:02;;;;;;;;;5.00;5.00;;;;;16.26;79.29;101480.34;5036329;28;45220;-64
2021/08/26 04:38:27;;;;;;;;;6.00;4.00;;;;;16.35;79.11;101496.56;5025985;28;45320;-64
2021/08/26 04:40:52;;;;;;;;;5.00;5.00;;;;;16.39;79.42;101489.41;5040849;28;45217;-64
2021/08/26 04:43:19;;;;;;;;;4.00;4.00;;;;;16.48;78.66;101489.06;5040620;28;45395;-65
2021/08/26 04:45:44;;;;;;;;;5.00;5.00;;;;;16.50;78.60;101487.22;5040515;28;47111;-65
2021/08/26 04:48:09;;;;;;;;;5.75;4.25;;;;;16.56;78.67;101494.84;5040603;28;45257;-65
2021/08/26 04:50:35;;;;;;;;;5.00;5.00;;;;;16.59;79.00;101491.25;5040980;28;45341;-64
2021/08/26 04:53:00;;;;;;;;;8.00;6.50;;;;;16.58;78.41;101498.25;5040503;28;45386;-64
2021/08/26 04:55:26;;;;;;;;;10.00;5.75;;;;;16.61;78.35;101495.50;5040440;28;46433;-64
2021/08/26 04:57:51;;;;;;;;;4.00;4.00;;;;;16.64;78.52;101495.41;5040016;28;45539;-64
2021/08/26 05:00:16;;;;;;;;;5.00;4.50;;;;;16.67;77.83;101497.94;5040318;28;45272;-64
2021/08/26 05:02:42;;;;;;;;;3.75;2.75;;;;;16.69;79.23;101496.09;5049724;28;45304;-66
2021/08/26 05:05:07;;;;;;;;;6.25;5.25;;;;;16.71;78.35;101491.63;5049284;28;45328;-66
2021/08/26 05:07:33;;;;;;;;;7.00;7.00;;;;;16.77;78.41;101487.03;5039899;28;45881;-66
2021/08/26 05:09:59;;;;;;;;;10.50;6.75;;;;;16.83;78.12;101486.81;5040210;28;45312;-66
2021/08/26 05:12:24;;;;;;;;;5.00;5.00;;;;;16.86;78.00;101484.91;5039682;28;45261;-66
2021/08/26 05:14:50;;;;;;;;;13.25;11.50;;;;;16.88;78.02;101483.06;5040049;28;45355;-62
2021/08/26 05:17:15;;;;;;;;;9.50;7.25;;;;;16.91;78.86;101485.56;5039857;28;45400;-62
2021/08/26 05:19:41;;;;;;;;;10.00;4.50;;;;;16.90;78.95;101489.09;5039814;28;45302;-64
2021/08/26 05:22:06;;;;;;;;;8.75;4.00;;;;;16.88;78.30;101495.34;5040031;28;45341;-62
2021/08/26 05:24:31;;;;;;;;;7.50;6.50;;;;;16.94;78.43;101497.69;5039881;28;46113;-60
2021/08/26 05:26:57;;;;;;;;;7.00;4.50;;;;;16.95;78.27;101499.41;5039847;28;45306;-64
2021/08/26 05:29:22;;;;;;;;;8.00;6.00;;;;;16.95;77.96;101495.00;5039818;28;45241;-65
2021/08/26 05:31:47;;;;;;;;;12.25;7.75;;;;;16.98;77.90;101494.03;5039819;28;45226;-68
2021/08/26 05:34:13;;;;;;;;;4.00;4.00;;;;;17.03;77.87;101503.44;5039601;28;46132;-67
2021/08/26 05:36:38;;;;;;;;;8.50;5.25;;;;;17.10;77.74;101509.28;5039630;28;45242;-63
2021/08/26 05:39:04;;;;;;;;;14.25;10.00;;;;;17.09;77.37;101502.31;5039380;28;45826;-61
2021/08/26 05:41:29;;;;;;;;;8.50;6.25;;;;;17.10;77.55;101503.19;5021457;28;45403;-62
2021/08/26 05:43:55;;;;;;;;;8.50;6.00;;;;;17.18;77.67;101508.94;5039626;28;45291;-62
2021/08/26 05:46:21;;;;;;;;;5.00;3.00;;;;;17.20;77.63;101502.69;5039613;28;45220;-62
2021/08/26 05:48:46;;;;;;;;;5.75;4.75;;;;;17.19;77.56;101503.63;5039795;28;45304;-62
2021/08/26 05:51:11;;;;;;;;;4.00;4.00;;;;;17.18;77.74;101506.31;5037616;28;45523;-62
2021/08/26 05:53:37;;;;;;;;;5.25;4.50;;;;;17.21;77.48;101498.28;5036917;28;46291;-62
2021/08/26 05:56:02;;;;;;;;;5.00;5.00;;;;;17.27;77.19;101490.19;5036978;28;45376;-63
2021/08/26 05:58:28;;;;;;;;;6.00;5.50;;;;;17.37;77.38;101490.63;5036372;28;45431;-62
2021/08/26 06:00:54;;;;;;;;;12.25;6.50;;;;;17.38;77.40;101493.16;5037260;28;45359;-62
2021/08/26 06:03:19;;;;;;;;;12.25;9.00;;;;;17.36;77.18;101495.00;5019827;28;47049;-63
2021/08/26 06:05:45;;;;;;;;;7.25;7.00;;;;;17.26;77.23;101499.84;5038846;28;45530;-62
2021/08/26 06:08:10;;;;;;;;;16.50;9.25;;;;;17.22;78.05;101495.63;5039355;28;45260;-62
2021/08/26 06:10:39;;;;;;;;;10.50;6.50;;;;;17.20;77.75;101502.69;5039164;28;45360;-62
2021/08/26 06:13:04;;;;;;;;;10.50;6.50;;;;;17.25;77.60;101507.78;5038736;28;45452;-63
2021/08/26 06:15:30;;;;;;;;;5.50;3.50;;;;;17.29;77.55;101498.84;5039471;28;45414;-63
2021/08/26 06:17:55;;;;;;;;;7.00;6.00;;;;;17.34;77.39;101500.34;5039203;28;45248;-63
2021/08/26 06:20:21;;;;;;;;;8.00;6.00;;;;;17.46;77.91;101501.59;5039148;28;45384;-63
2021/08/26 06:22:46;;;;;;;;;8.25;4.25;;;;;17.51;77.24;101504.88;5039052;28;46100;-63
2021/08/26 06:25:13;;;;;;;;;5.25;5.25;;;;;17.54;77.43;101509.13;5039342;28;45393;-63
2021/08/26 06:27:39;;;;;;;;;7.50;5.00;;;;;17.52;77.87;101495.19;5039249;28;45264;-63
2021/08/26 06:30:07;;;;;;;;;5.50;5.50;;;;;17.59;77.63;101510.63;5038992;28;45246;-62
2021/08/26 06:32:32;;;;;;;;;5.50;4.00;;;;;17.58;77.41;101514.16;5038970;28;45356;-63
2021/08/26 06:34:58;;;;;;;;;8.75;4.00;;;;;17.62;77.09;101502.63;5047657;28;45163;-62
2021/08/26 06:37:24;;;;;;;;;6.00;5.00;;;;;17.73;77.23;101511.81;5038815;28;45196;-64
2021/08/26 06:39:49;;;;;;;;;8.00;6.00;;;;;17.77;77.35;101498.47;5038993;28;45344;-67
2021/08/26 06:42:15;;;;;;;;;6.00;5.00;;;;;17.73;77.03;101496.91;5038522;28;46654;-67
2021/08/26 06:44:40;;;;;;;;;11.25;8.00;;;;;17.74;77.93;101495.97;5038757;28;45284;-67
2021/08/26 06:47:06;;;;;;;;;5.25;5.00;;;;;17.80;77.75;101507.97;5038902;28;45476;-67
2021/08/26 06:49:32;;;;;;;;;11.75;7.00;;;;;17.84;78.34;101494.66;5038692;28;45312;-67
2021/08/26 06:51:57;;;;;;;;;5.25;5.00;;;;;17.87;77.61;101502.41;5040535;28;46060;-67
2021/08/26 06:54:22;;;;;;;;;9.00;7.25;;;;;17.86;77.71;101502.47;5041938;28;45288;-66
2021/08/26 06:56:48;;;;;;;;;7.25;6.00;;;;;17.87;78.01;101499.78;5041392;28;45384;-66
2021/08/26 06:59:13;;;;;;;;;14.75;8.00;;;;;17.91;78.09;101501.31;5041597;28;45845;-66
2021/08/26 07:01:38;;;;;;;;;10.75;5.25;;;;;17.93;78.11;101494.22;5041596;28;46185;-66
2021/08/26 07:04:04;;;;;;;;;5.50;5.50;;;;;18.04;77.78;101503.41;5041343;28;45373;-66
2021/08/26 07:06:29;;;;;;;;;10.50;8.50;;;;;18.17;77.55;101499.25;5041187;28;45563;-66
2021/08/26 07:08:55;;;;;;;;;6.25;5.00;;;;;18.30;77.10;101502.19;5041574;28;45566;-66
2021/08/26 07:11:20;;;;;;;;;8.00;5.00;;;;;18.28;76.78;101501.41;5040951;28;45909;-65
2021/08/26 07:13:46;;;;;;;;;6.25;4.75;;;;;18.29;77.34;101501.31;5016227;28;45314;-72
2021/08/26 07:16:11;;;;;;;;;20.00;12.50;;;;;18.34;76.80;101486.16;5040913;28;45403;-70
2021/08/26 07:18:36;;;;;;;;;8.75;7.00;;;;;18.40;76.47;101491.13;5041101;28;45495;-69
2021/08/26 07:21:03;;;;;;;;;5.25;4.25;;;;;18.41;76.40;101492.81;5041149;28;45997;-69
2021/08/26 07:23:28;;;;;;;;;6.00;6.00;;;;;18.45;76.46;101483.03;5041281;28;45388;-69
2021/08/26 07:25:53;;;;;;;;;6.75;4.50;;;;;18.49;76.48;101495.97;5041203;28;45134;-68
2021/08/26 07:28:19;;;;;;;;;6.75;6.00;;;;;18.51;76.39;101488.84;5041068;28;45545;-68
2021/08/26 07:30:44;;;;;;;;;8.50;7.50;;;;;18.51;76.35;101485.34;5040785;28;45984;-65
2021/08/26 07:33:09;;;;;;;;;10.50;7.75;;;;;18.55;76.25;101482.50;5041721;28;45516;-65
2021/08/26 07:35:35;;;;;;;;;6.00;5.00;;;;;18.61;76.04;101489.22;5041444;28;45272;-64
2021/08/26 07:38:00;;;;;;;;;9.00;7.50;;;;;18.65;76.35;101480.31;5041502;28;45332;-67
2021/08/26 07:40:26;;;;;;;;;15.75;12.25;;;;;18.75;75.71;101489.44;5041306;28;45316;-67
2021/08/26 07:42:52;;;;;;;;;8.00;6.50;;;;;18.87;75.58;101482.72;5041443;28;45410;-67
2021/08/26 07:45:17;;;;;;;;;11.25;9.50;;;;;18.91;75.08;101479.00;5041285;28;45470;-66
2021/08/26 07:47:42;;;;;;;;;9.75;8.00;;;;;19.01;74.90;101488.13;5041468;28;45360;-64
2021/08/26 07:50:09;;;;;;;;;8.75;6.25;;;;;19.09;74.40;101491.25;5049315;28;46025;-66
2021/08/26 07:52:34;;;;;;;;;13.25;9.50;;;;;19.15;74.58;101497.97;5022113;28;46094;-66
2021/08/26 07:55:02;;;;;;;;;10.00;7.25;;;;;19.20;74.16;101497.72;5041276;28;45333;-64
2021/08/26 07:57:27;;;;;;;;;10.00;8.50;;;;;19.19;73.93;101491.59;5032258;28;45270;-65
2021/08/26 07:59:53;;;;;;;;;18.50;9.25;;;;;19.29;73.98;101499.91;5041123;28;45181;-62
2021/08/26 08:02:18;;;;;;;;;9.75;8.00;;;;;19.32;73.54;101497.13;5040444;28;45159;-62
2021/08/26 08:04:44;;;;;;;;;12.25;9.50;;;;;19.37;73.48;101500.34;5041180;28;45448;-66
2021/08/26 08:07:09;;;;;;;;;10.75;10.75;;;;;19.47;73.43;101506.88;5040515;28;45383;-67
2021/08/26 08:09:35;;;;;;;;;10.75;7.00;;;;;19.51;73.31;101499.63;5040550;28;45449;-65
2021/08/26 08:12:01;;;;;;;;;11.50;9.25;;;;;19.59;73.29;101497.47;5040028;28;45246;-65
2021/08/26 08:14:29;;;;;;;;;11.00;10.25;;;;;19.65;72.63;101491.91;5040540;28;45249;-65
2021/08/26 08:16:55;;;;;;;;;11.50;8.75;;;;;19.74;72.23;101489.59;5038746;28;45306;-65
2021/08/26 08:19:21;;;;;;;;;11.75;9.75;;;;;19.79;71.81;101491.13;5039700;28;46954;-67
2021/08/26 08:21:46;;;;;;;;;11.50;10.50;;;;;19.79;72.11;101491.13;5024116;28;45364;-67
2021/08/26 08:24:11;;;;;;;;;8.00;8.00;;;;;19.88;72.23;101488.00;5040179;28;45397;-66
2021/08/26 08:26:36;;;;;;;;;9.75;9.50;;;;;19.86;71.89;101493.38;5040100;28;45662;-67
2021/08/26 08:29:02;;;;;;;;;10.75;8.25;;;;;19.90;71.75;101491.41;5041469;28;45409;-68
2021/08/26 08:31:28;;;;;;;;;8.75;5.75;;;;;19.94;71.46;101490.31;5022305;28;45407;-68
2021/08/26 08:33:53;;;;;;;;;8.75;6.25;;;;;19.98;71.30;101491.84;5039953;28;45358;-66
2021/08/26 08:36:20;;;;;;;;;7.25;6.00;;;;;20.01;71.69;101489.88;5039519;28;45451;-65
2021/08/26 08:38:45;;;;;;;;;11.50;8.75;;;;;20.07;71.72;101493.13;5039629;28;46934;-65
2021/08/26 08:41:16;;;;;;;;;7.75;7.50;;;;;20.08;71.49;101489.56;5040055;28;45483;-65
2021/08/26 08:43:41;;;;;;;;;17.50;11.50;;;;;20.01;71.61;101489.88;5039950;28;45222;-65
2021/08/26 08:46:07;;;;;;;;;15.00;9.00;;;;;20.07;71.61;101488.72;5040148;28;45283;-64
2021/08/26 08:48:38;;;;;;;;;13.75;11.50;;;;;20.13;71.41;101491.00;5040457;28;45331;-64
2021/08/26 08:51:04;;;;;;;;;16.50;9.50;;;;;20.21;71.56;101495.84;5022496;28;45448;-63
2021/08/26 08:53:30;;;;;;;;;5.00;5.00;;;;;20.28;71.44;101495.44;5039788;28;45280;-64
2021/08/26 08:55:56;;;;;;;;;7.75;5.25;;;;;20.31;71.22;101499.69;5039914;28;45451;-65
2021/08/26 08:58:22;;;;;;;;;5.00;4.00;;;;;20.31;71.53;101502.31;5039386;28;45322;-65
2021/08/26 09:00:47;;;;;;;;;4.25;4.25;;;;;20.34;71.60;101494.22;5039805;28;45282;-64
2021/08/26 09:03:12;;;;;;;;;7.00;5.50;;;;;20.46;72.12;101498.88;5039745;28;45329;-65
2021/08/26 09:05:59;;;;;;;;;5.25;4.00;;;;;20.54;71.51;101498.41;5040409;28;45443;-65
2021/08/26 09:08:30;;;;;;;;;7.25;5.50;;;;;20.45;71.79;101480.47;5039951;28;47263;-64
2021/08/26 09:11:14;;;;;;;;;6.00;4.00;;;;;20.46;71.84;101488.31;5040140;28;45808;-64
2021/08/26 09:13:40;;;;;;;;;4.00;3.25;;;;;20.43;72.38;101487.63;5040073;28;45297;-63
2021/08/26 09:16:06;;;;;;;;;3.25;3.25;;;;;20.39;72.30;101491.31;5039243;28;45349;-64
2021/08/26 09:18:32;;;;;;;;;5.25;3.25;;;;;20.47;72.14;101491.78;5039920;28;46290;-63
2021/08/26 09:21:10;;;;;;;;;7.00;2.75;;;;;20.52;72.13;101482.66;5040000;28;45292;-64
2021/08/26 09:23:58;;;;;;;;;4.00;4.00;;;;;20.56;71.86;101493.91;5040071;28;45343;-64
2021/08/26 09:26:26;;;;;;;;;3.75;2.50;;;;;20.51;72.43;101490.66;5040026;28;45327;-65
2021/08/26 09:28:53;;;;;;;;;4.50;3.00;;;;;20.45;72.71;101489.25;5038514;28;46521;-65
2021/08/26 09:31:27;;;;;;;;;3.75;3.00;;;;;20.54;72.53;101486.06;5039062;28;45628;-65
2021/08/26 09:34:02;;;;;;;;;4.00;3.75;;;;;20.69;72.28;101488.78;5037405;28;45324;-65
2021/08/26 09:36:50;;;;;;;;;6.75;6.75;;;;;20.83;71.60;101494.97;5036856;28;45450;-66
2021/08/26 09:39:20;;;;;;;;;3.50;3.50;;;;;20.96;71.32;101490.63;5039592;28;46258;-67
2021/08/26 09:41:53;;;;;;;;;4.75;4.75;;;;;21.06;70.74;101484.84;5021644;28;45447;-65
2021/08/26 09:44:24;;;;;;;;;4.50;2.50;;;;;21.12;70.59;101484.47;5030371;28;45349;-66
2021/08/26 09:46:51;;;;;;;;;4.00;2.25;;;;;21.14;70.23;101478.13;5039099;28;45399;-66
2021/08/26 09:49:22;;;;;;;;;5.00;3.75;;;;;21.33;70.03;101485.84;5039197;28;45624;-65
2021/08/26 09:52:02;;;;;;;;;4.00;3.00;;;;;21.41;69.42;101488.00;5037715;28;45187;-66
2021/08/26 09:54:49;;;;;;;;;3.25;3.25;;;;;21.45;69.52;101485.09;5031871;28;45301;-67
2021/08/26 09:57:33;;;;;;;;;2.00;1.00;;;;;21.57;68.90;101483.47;5036612;28;45257;-68
2021/08/26 10:00:03;;;;;;;;;4.25;3.75;;;;;21.66;69.01;101496.16;5039171;28;47182;-66
2021/08/26 10:02:31;;;;;;;;;3.50;2.50;;;;;21.71;68.58;101474.69;5038946;28;45324;-67
2021/08/26 10:04:57;;;;;;;;;0.25;0.25;;;;;21.77;68.22;101474.31;5038619;28;45277;-67
2021/08/26 10:07:27;;;;;;;;;3.75;2.00;;;;;21.90;68.34;101480.53;5038297;28;45506;-66
2021/08/26 10:09:53;;;;;;;;;2.75;2.75;;;;;22.06;66.97;101480.47;5034376;28;46243;-66
2021/08/26 10:12:19;;;;;;;;;6.25;3.50;;;;;22.20;67.38;101466.31;5038259;28;45649;-64
2021/08/26 10:14:47;;;;;;;;;7.50;4.50;;;;;22.41;66.88;101473.72;5039314;28;45381;-64
2021/08/26 10:17:13;;;;;;;;;2.00;1.50;;;;;22.57;65.90;101464.75;5039215;28;45450;-64
2021/08/26 10:19:40;;;;;;;;;2.00;2.00;;;;;22.67;65.18;101461.41;5038210;28;46501;-66
2021/08/26 10:22:06;;;;;;;;;5.25;3.25;;;;;22.98;64.32;101467.31;5044783;28;45425;-55
2021/08/26 10:24:32;;;;;;;;;1.00;1.00;;;;;23.10;64.45;101466.50;5047998;28;45321;-57
2021/08/26 10:27:05;;;;;;;;;3.00;2.00;;;;;23.20;63.82;101462.25;5041372;28;45434;-56
2021/08/26 10:29:32;;;;;;;;;2.25;2.25;;;;;23.40;64.44;101460.88;5042359;28;46052;-56
2021/08/26 10:31:59;;;;;;;;;1.50;1.25;;;;;23.66;63.47;101456.44;5042574;28;45241;-56
2021/08/26 10:34:27;;;;;;;;;4.25;3.25;;;;;23.77;61.03;101459.16;5042433;28;45393;-56
2021/08/26 10:36:55;;;;;;;;;3.25;2.50;;;;;23.75;60.73;101458.41;5037798;28;45275;-56
2021/08/26 10:39:41;;;;;;;;;3.00;3.00;;;;;23.80;61.58;101464.25;5047631;28;46122;-56
2021/08/26 10:42:16;;;;;;;;;4.25;3.00;;;;;23.67;61.26;101469.59;5037556;28;45660;-56
2021/08/26 10:45:18;;;;;;;;;2.75;2.00;;;;;23.64;61.74;101477.78;5042418;28;45397;-67
2021/08/26 10:47:49;;;;;;;;;3.25;1.75;;;;;23.20;60.31;101483.47;5036068;28;45415;-68
2021/08/26 10:50:24;;;;;;;;;2.75;2.75;;;;;22.41;62.87;101491.41;5044939;28;46661;-73
2021/08/26 10:52:52;;;;;;;;;3.75;2.75;;;;;21.89;64.44;101499.16;5042276;28;45166;-67
2021/08/26 10:55:39;;;;;;;;;3.75;2.75;;;;;21.51;64.40;101500.59;5042476;28;45280;-68
2021/08/26 10:58:16;;;;;;;;;6.00;4.50;;;;;21.22;66.61;101504.97;5042027;28;45304;-70
2021/08/26 11:00:43;;;;;;;;;5.75;5.75;;;;;21.02;65.69;101494.72;5032934;28;46399;-72
2021/08/26 11:03:09;;;;;;;;;7.00;4.25;;;;;20.89;67.65;101493.75;5041982;28;45255;-66
2021/08/26 11:05:38;;;;;;;;;4.00;3.00;;;;;20.87;67.07;101490.34;5042585;28;45512;-68
2021/08/26 11:08:30;;;;;;;;;4.50;4.25;;;;;20.95;67.51;101493.38;5041859;28;45424;-72
2021/08/26 11:10:57;;;;;;;;;7.00;6.00;;;;;21.06;68.06;101492.75;5038385;28;46344;-69
2021/08/26 11:13:34;;;;;;;;;5.50;4.75;;;;;21.21;68.68;101494.47;5041793;28;46160;-63
2021/08/26 11:16:24;;;;;;;;;7.00;5.00;;;;;21.43;68.16;101489.63;5024267;28;45489;-60
2021/08/26 11:18:54;;;;;;;;;9.50;5.00;;;;;21.81;68.01;101481.09;5041343;28;45873;-57
2021/08/26 11:21:42;;;;;;;;;8.25;7.25;;;;;22.17;68.08;101478.81;5009628;28;46491;-57
2021/08/26 11:24:30;;;;;;;;;4.00;4.00;;;;;22.54;67.78;101480.88;5038616;28;45539;-58
2021/08/26 11:26:57;;;;;;;;;8.00;6.00;;;;;22.68;66.43;101471.06;5038824;28;46366;-63